Weather at Ajaccio-Napoléon Bonaparte Airport

Public forecast

Using degrees Celsius for public forecast. Weather courtesy of forecast.io.

Current aviation weather report (METAR) for Ajaccio-Napoléon Bonaparte Airport

2024/05/28 04:00 (retrieved 36 minutes ago)

LFKJ 280400Z AUTO 04005KT CAVOK 13/10 Q1016 TEMPO BKN014

Closest aviation forecast (TAF) to Ajaccio-Napoléon Bonaparte Airport

Forecast is more than 12 hours old.

Closest forecast is Riviera Villanova d'Albenga International Airport, 131.1 nm (242.8 km) NNW.

2024/05/27 12:39 Ammendment (retrieved 16 hours ago)

TAF AMD TAF AMD LIMG 271833Z 2712/2812 CNL